createdAt,value
2018-06-08T00:00:05.515Z,1.7
2018-06-08T00:00:17.930Z,1.7
2018-06-08T00:00:30.513Z,1.7
2018-06-08T00:00:42.954Z,1.7
2018-06-08T00:00:55.393Z,1.7
2018-06-08T00:01:07.803Z,1.7
2018-06-08T00:01:20.199Z,1.7
2018-06-08T00:01:32.620Z,1.7
2018-06-08T00:01:45.082Z,1.7
2018-06-08T00:01:57.474Z,1.7
2018-06-08T00:02:09.879Z,1.7
2018-06-08T00:02:22.437Z,1.7
2018-06-08T00:02:34.852Z,1.7
2018-06-08T00:02:47.279Z,1.7
2018-06-08T00:02:59.695Z,1.7
2018-06-08T00:03:12.090Z,1.7
2018-06-08T00:03:24.476Z,1.7
2018-06-08T00:03:36.935Z,1.7
2018-06-08T00:03:49.362Z,1.7
2018-06-08T00:04:01.773Z,1.7
2018-06-08T00:04:14.179Z,1.7
2018-06-08T00:04:26.646Z,1.7
2018-06-08T00:04:39.037Z,1.7
2018-06-08T00:04:51.445Z,1.7
2018-06-08T00:05:03.857Z,1.7
2018-06-08T00:05:16.294Z,1.7
2018-06-08T00:05:28.736Z,1.7
2018-06-08T00:05:41.190Z,1.7
2018-06-08T00:05:53.690Z,1.7
2018-06-08T00:06:06.098Z,1.7
2018-06-08T00:06:18.509Z,1.7
2018-06-08T00:06:30.919Z,1.7
2018-06-08T00:06:43.306Z,1.7
2018-06-08T00:06:55.742Z,1.7
2018-06-08T00:07:08.147Z,1.7
2018-06-08T00:07:20.555Z,1.7
2018-06-08T00:07:32.958Z,1.7
2018-06-08T00:07:45.347Z,1.7
2018-06-08T00:07:57.768Z,1.7
2018-06-08T00:08:10.206Z,1.7
2018-06-08T00:08:22.625Z,1.7
2018-06-08T00:08:35.026Z,1.7
2018-06-08T00:08:47.479Z,1.7
2018-06-08T00:08:59.878Z,1.7
2018-06-08T00:09:12.285Z,1.7
2018-06-08T00:09:24.702Z,1.7
2018-06-08T00:09:37.095Z,1.7
2018-06-08T00:09:49.485Z,1.7
2018-06-08T00:10:01.869Z,1.75
2018-06-08T00:10:14.286Z,1.75
2018-06-08T00:10:26.700Z,1.75
2018-06-08T00:10:39.111Z,1.75
2018-06-08T00:10:51.680Z,1.75
2018-06-08T00:11:04.095Z,1.75
2018-06-08T00:11:16.497Z,1.75
2018-06-08T00:11:28.894Z,1.75
2018-06-08T00:11:41.320Z,1.75
2018-06-08T00:11:53.777Z,1.75
2018-06-08T00:12:06.195Z,1.75
2018-06-08T00:12:18.683Z,1.75
2018-06-08T00:12:31.101Z,1.75
2018-06-08T00:12:43.512Z,1.75
2018-06-08T00:12:55.931Z,1.75
2018-06-08T00:13:08.330Z,1.75
2018-06-08T00:13:20.742Z,1.75
2018-06-08T00:13:33.146Z,1.75
2018-06-08T00:13:45.590Z,1.75
2018-06-08T00:13:57.997Z,1.75
2018-06-08T00:14:10.437Z,1.75
2018-06-08T00:14:22.844Z,1.75
2018-06-08T00:14:35.243Z,1.75
2018-06-08T00:14:47.657Z,1.75
2018-06-08T00:15:00.208Z,1.75
2018-06-08T00:15:12.658Z,1.75
2018-06-08T00:15:25.075Z,1.75
2018-06-08T00:15:37.523Z,1.75
2018-06-08T00:15:50.125Z,1.75
2018-06-08T00:16:02.699Z,1.75
2018-06-08T00:16:15.103Z,1.75
2018-06-08T00:16:27.496Z,1.75
2018-06-08T00:16:39.909Z,1.75
2018-06-08T00:16:52.318Z,1.75
2018-06-08T00:17:04.736Z,1.75
2018-06-08T00:17:17.154Z,1.75
2018-06-08T00:17:29.554Z,1.75
2018-06-08T00:17:41.949Z,1.75
2018-06-08T00:17:54.460Z,1.75
2018-06-08T00:18:06.852Z,1.75
2018-06-08T00:18:19.246Z,1.75
2018-06-08T00:18:31.693Z,1.75
2018-06-08T00:18:44.100Z,1.75
2018-06-08T00:18:56.508Z,1.75
2018-06-08T00:19:08.916Z,1.75
2018-06-08T00:19:21.308Z,1.75
2018-06-08T00:19:33.712Z,1.75
2018-06-08T00:19:46.137Z,1.75
2018-06-08T00:19:58.533Z,1.46
2018-06-08T00:20:10.943Z,1.46
2018-06-08T00:20:23.380Z,1.46
2018-06-08T00:20:35.788Z,1.46
2018-06-08T00:20:48.254Z,1.46
2018-06-08T00:21:00.681Z,1.46
2018-06-08T00:21:13.086Z,1.46
2018-06-08T00:21:25.506Z,1.46
2018-06-08T00:21:37.900Z,1.46
2018-06-08T00:21:50.309Z,1.46
2018-06-08T00:22:02.800Z,1.46
2018-06-08T00:22:15.211Z,1.46
2018-06-08T00:22:27.609Z,1.46
2018-06-08T00:22:40.012Z,1.46
2018-06-08T00:22:52.595Z,1.46
2018-06-08T00:23:05.124Z,1.46
2018-06-08T00:23:17.530Z,1.46
2018-06-08T00:23:29.980Z,1.46
2018-06-08T00:23:42.401Z,1.46
2018-06-08T00:23:54.834Z,1.46
2018-06-08T00:24:07.239Z,1.46
2018-06-08T00:24:19.643Z,1.46
2018-06-08T00:24:32.051Z,1.46
2018-06-08T00:24:44.437Z,1.46
2018-06-08T00:24:56.874Z,1.46
2018-06-08T00:25:09.317Z,1.46
2018-06-08T00:25:21.697Z,1.46
2018-06-08T00:25:34.081Z,1.46
2018-06-08T00:25:46.468Z,1.46
2018-06-08T00:25:58.862Z,1.46
2018-06-08T00:26:11.270Z,1.46
2018-06-08T00:26:23.674Z,1.46
2018-06-08T00:26:36.080Z,1.46
2018-06-08T00:26:48.488Z,1.46
2018-06-08T00:27:00.892Z,1.46
2018-06-08T00:27:13.284Z,1.46
2018-06-08T00:27:25.677Z,1.46
2018-06-08T00:27:38.071Z,1.46
2018-06-08T00:27:50.486Z,1.46
2018-06-08T00:28:02.967Z,1.46
2018-06-08T00:28:15.381Z,1.46
2018-06-08T00:28:27.762Z,1.46
2018-06-08T00:28:40.195Z,1.46
2018-06-08T00:28:52.636Z,1.46
2018-06-08T00:29:05.044Z,1.46
2018-06-08T00:29:17.450Z,1.46
2018-06-08T00:29:29.824Z,1.46
2018-06-08T00:29:42.220Z,1.46
2018-06-08T00:29:54.622Z,1.46
2018-06-08T00:30:07.022Z,1.65
2018-06-08T00:30:19.449Z,1.65
2018-06-08T00:30:31.908Z,1.65
2018-06-08T00:30:44.302Z,1.65
2018-06-08T00:30:56.707Z,1.65
2018-06-08T00:31:09.108Z,1.65
2018-06-08T00:31:21.516Z,1.65
2018-06-08T00:31:33.904Z,1.65
2018-06-08T00:31:46.296Z,1.65
2018-06-08T00:31:58.688Z,1.65
2018-06-08T00:32:11.100Z,1.65
2018-06-08T00:32:23.512Z,1.65
2018-06-08T00:32:35.929Z,1.65
2018-06-08T00:32:48.660Z,1.65
2018-06-08T00:33:01.081Z,1.65
2018-06-08T00:33:13.485Z,1.65
2018-06-08T00:33:25.887Z,1.65
2018-06-08T00:33:38.334Z,1.65
2018-06-08T00:33:50.747Z,1.65
2018-06-08T00:34:03.163Z,1.65
2018-06-08T00:34:15.553Z,1.65
2018-06-08T00:34:27.985Z,1.65
2018-06-08T00:34:40.391Z,1.65
2018-06-08T00:34:52.844Z,1.65
2018-06-08T00:35:05.263Z,1.65
2018-06-08T00:35:17.669Z,1.65
2018-06-08T00:35:30.085Z,1.65
2018-06-08T00:35:42.511Z,1.65
2018-06-08T00:35:54.907Z,1.65
2018-06-08T00:36:07.383Z,1.65
2018-06-08T00:36:19.786Z,1.65
2018-06-08T00:36:32.187Z,1.65
2018-06-08T00:36:44.662Z,1.65
2018-06-08T00:36:57.062Z,1.65
2018-06-08T00:37:09.448Z,1.65
2018-06-08T00:37:21.840Z,1.65
2018-06-08T00:37:34.238Z,1.65
2018-06-08T00:37:46.852Z,1.65
2018-06-08T00:37:59.233Z,1.65
2018-06-08T00:38:11.642Z,1.65
2018-06-08T00:38:24.056Z,1.65
2018-06-08T00:38:36.467Z,1.65
2018-06-08T00:38:48.885Z,1.65
2018-06-08T00:39:01.291Z,1.65
2018-06-08T00:39:13.686Z,1.65
2018-06-08T00:39:26.095Z,1.65
2018-06-08T00:39:38.492Z,1.65
2018-06-08T00:39:50.915Z,1.65
2018-06-08T00:40:03.310Z,1.68
2018-06-08T00:40:15.708Z,1.68
2018-06-08T00:40:28.107Z,1.68
2018-06-08T00:40:40.506Z,1.68
2018-06-08T00:40:52.925Z,1.68
2018-06-08T00:41:05.340Z,1.68
2018-06-08T00:41:17.746Z,1.68
2018-06-08T00:41:30.202Z,1.68
2018-06-08T00:41:42.611Z,1.68
2018-06-08T00:41:55.018Z,1.68
2018-06-08T00:42:07.473Z,1.68
2018-06-08T00:42:19.917Z,1.68
2018-06-08T00:42:32.353Z,1.68
2018-06-08T00:42:44.813Z,1.68
2018-06-08T00:42:57.219Z,1.68
2018-06-08T00:43:09.634Z,1.68
2018-06-08T00:43:22.034Z,1.68
2018-06-08T00:43:34.415Z,1.68
2018-06-08T00:43:46.849Z,1.68
2018-06-08T00:43:59.253Z,1.68
2018-06-08T00:44:11.659Z,1.68
2018-06-08T00:44:24.044Z,1.68
2018-06-08T00:44:36.638Z,1.68
2018-06-08T00:44:49.047Z,1.68
2018-06-08T00:45:01.464Z,1.68
2018-06-08T00:45:13.965Z,1.68
2018-06-08T00:45:26.369Z,1.68
2018-06-08T00:45:38.756Z,1.68
2018-06-08T00:45:51.179Z,1.68
2018-06-08T00:46:03.778Z,1.68
2018-06-08T00:46:16.185Z,1.68
2018-06-08T00:46:28.575Z,1.68
2018-06-08T00:46:40.984Z,1.68
2018-06-08T00:46:53.419Z,1.68
2018-06-08T00:47:05.848Z,1.68
2018-06-08T00:47:18.248Z,1.68
2018-06-08T00:47:30.647Z,1.68
2018-06-08T00:47:43.046Z,1.68
2018-06-08T00:47:55.448Z,1.68
2018-06-08T00:48:07.876Z,1.68
2018-06-08T00:48:20.264Z,1.68
2018-06-08T00:48:32.823Z,1.68
2018-06-08T00:48:45.207Z,1.68
2018-06-08T00:48:57.613Z,1.68
2018-06-08T00:49:10.057Z,1.68
2018-06-08T00:49:22.487Z,1.68
2018-06-08T00:49:35.068Z,1.68
2018-06-08T00:49:47.485Z,1.68
2018-06-08T00:49:59.883Z,2.06
2018-06-08T00:50:12.400Z,2.06
2018-06-08T00:50:24.882Z,2.06
2018-06-08T00:50:37.302Z,2.06
2018-06-08T00:50:49.691Z,2.06
2018-06-08T00:51:02.111Z,2.06
2018-06-08T00:51:14.509Z,2.06
2018-06-08T00:51:27.052Z,2.06
2018-06-08T00:51:39.465Z,2.06
2018-06-08T00:51:51.901Z,2.06
2018-06-08T00:52:04.330Z,2.06
2018-06-08T00:52:16.760Z,2.06
2018-06-08T00:52:29.394Z,2.06
2018-06-08T00:52:41.864Z,2.06
2018-06-08T00:52:54.296Z,2.06
2018-06-08T00:53:06.707Z,2.06
2018-06-08T00:53:19.223Z,2.06
2018-06-08T00:53:31.641Z,2.06
2018-06-08T00:53:44.077Z,2.06
2018-06-08T00:53:56.482Z,2.06
2018-06-08T00:54:08.913Z,2.06
2018-06-08T00:54:21.363Z,2.06
2018-06-08T00:54:33.786Z,2.06
2018-06-08T00:54:46.213Z,2.06
2018-06-08T00:54:58.652Z,2.06
2018-06-08T00:55:11.086Z,2.06
2018-06-08T00:55:23.510Z,2.06
2018-06-08T00:55:36.039Z,2.06
2018-06-08T00:55:48.449Z,2.06
2018-06-08T00:56:01.118Z,2.06
2018-06-08T00:56:13.545Z,2.06
2018-06-08T00:56:25.956Z,2.06
2018-06-08T00:56:38.393Z,2.06
2018-06-08T00:56:50.825Z,2.06
2018-06-08T00:57:03.235Z,2.06
2018-06-08T00:57:15.679Z,2.06
2018-06-08T00:57:28.242Z,2.06
2018-06-08T00:57:40.647Z,2.06
2018-06-08T00:57:53.064Z,2.06
2018-06-08T00:58:05.467Z,2.06
2018-06-08T00:58:17.858Z,2.06
2018-06-08T00:58:30.274Z,2.06
2018-06-08T00:58:42.675Z,2.06
2018-06-08T00:58:55.074Z,2.06
2018-06-08T00:59:07.491Z,2.06
2018-06-08T00:59:19.920Z,2.06
2018-06-08T00:59:32.326Z,2.06
2018-06-08T00:59:44.753Z,2.06
2018-06-08T00:59:57.153Z,2.06
2018-06-08T01:00:09.582Z,1.7
2018-06-08T01:00:22.022Z,1.7
2018-06-08T01:00:34.462Z,1.7
2018-06-08T01:00:47.001Z,1.7
2018-06-08T01:00:59.443Z,1.7
2018-06-08T01:01:11.914Z,1.7
2018-06-08T01:01:24.339Z,1.7
2018-06-08T01:01:36.741Z,1.7
2018-06-08T01:01:49.354Z,1.7
2018-06-08T01:02:01.756Z,1.7
2018-06-08T01:02:14.174Z,1.7
2018-06-08T01:02:26.753Z,1.7
2018-06-08T01:02:39.160Z,1.7
2018-06-08T01:02:51.565Z,1.7
2018-06-08T01:03:03.984Z,1.7
2018-06-08T01:03:16.382Z,1.7
2018-06-08T01:03:28.791Z,1.7
2018-06-08T01:03:41.181Z,1.7
2018-06-08T01:03:53.667Z,1.7
2018-06-08T01:04:06.113Z,1.7
2018-06-08T01:04:18.553Z,1.7
2018-06-08T01:04:30.947Z,1.7
2018-06-08T01:04:43.357Z,1.7
2018-06-08T01:04:55.757Z,1.7
2018-06-08T01:05:08.205Z,1.7
2018-06-08T01:05:20.607Z,1.7
2018-06-08T01:05:33.011Z,1.7
2018-06-08T01:05:45.407Z,1.7
2018-06-08T01:05:57.812Z,1.7
2018-06-08T01:06:10.245Z,1.7
2018-06-08T01:06:22.670Z,1.7
2018-06-08T01:06:35.109Z,1.7
2018-06-08T01:06:47.512Z,1.7
2018-06-08T01:06:59.901Z,1.7
2018-06-08T01:07:12.320Z,1.7
2018-06-08T01:07:24.791Z,1.7
2018-06-08T01:07:37.206Z,1.7
2018-06-08T01:07:49.642Z,1.7
2018-06-08T01:08:02.047Z,1.7
2018-06-08T01:08:14.465Z,1.7
2018-06-08T01:08:26.857Z,1.7
2018-06-08T01:08:39.288Z,1.7
2018-06-08T01:08:51.716Z,1.7
2018-06-08T01:09:04.100Z,1.7
2018-06-08T01:09:16.492Z,1.7
2018-06-08T01:09:28.886Z,1.7
2018-06-08T01:09:41.305Z,1.7
2018-06-08T01:09:53.707Z,1.7
2018-06-08T01:10:06.106Z,1.85
2018-06-08T01:10:18.502Z,1.85
2018-06-08T01:10:30.941Z,1.85
2018-06-08T01:10:43.341Z,1.85
2018-06-08T01:10:55.778Z,1.85
2018-06-08T01:11:08.189Z,1.85
2018-06-08T01:11:20.568Z,1.85
2018-06-08T01:11:32.992Z,1.85
2018-06-08T01:11:45.400Z,1.85
2018-06-08T01:11:57.800Z,1.85
2018-06-08T01:12:10.207Z,1.85
2018-06-08T01:12:22.648Z,1.85
2018-06-08T01:12:35.045Z,1.85
2018-06-08T01:12:47.462Z,1.85
2018-06-08T01:12:59.854Z,1.85
2018-06-08T01:13:12.265Z,1.85
2018-06-08T01:13:24.679Z,1.85
2018-06-08T01:13:37.084Z,1.85
2018-06-08T01:13:49.487Z,1.85
2018-06-08T01:14:01.873Z,1.85
2018-06-08T01:14:14.262Z,1.85
2018-06-08T01:14:26.659Z,1.85
2018-06-08T01:14:39.073Z,1.85
2018-06-08T01:14:51.478Z,1.85
2018-06-08T01:15:03.889Z,1.85
2018-06-08T01:15:16.282Z,1.85
2018-06-08T01:15:28.845Z,1.85
2018-06-08T01:15:41.244Z,1.85
2018-06-08T01:15:53.798Z,1.85
2018-06-08T01:16:06.363Z,1.85
2018-06-08T01:16:18.771Z,1.85
2018-06-08T01:16:31.173Z,1.85
2018-06-08T01:16:43.588Z,1.85
2018-06-08T01:16:56.009Z,1.85
2018-06-08T01:17:08.416Z,1.85
2018-06-08T01:17:20.819Z,1.85
2018-06-08T01:17:33.218Z,1.85
2018-06-08T01:17:45.769Z,1.85
2018-06-08T01:17:58.183Z,1.85
2018-06-08T01:18:10.590Z,1.85
2018-06-08T01:18:23.027Z,1.85
2018-06-08T01:18:35.427Z,1.85
2018-06-08T01:18:47.837Z,1.85
2018-06-08T01:19:00.244Z,1.85
2018-06-08T01:19:12.680Z,1.85
2018-06-08T01:19:25.059Z,1.85
2018-06-08T01:19:37.478Z,1.85
2018-06-08T01:19:49.894Z,1.85
2018-06-08T01:20:02.316Z,1.8
2018-06-08T01:20:14.731Z,1.8
2018-06-08T01:20:27.136Z,1.8
2018-06-08T01:20:39.549Z,1.8
2018-06-08T01:20:51.962Z,1.8
2018-06-08T01:21:04.367Z,1.8
2018-06-08T01:21:16.748Z,1.8
2018-06-08T01:21:29.157Z,1.8
2018-06-08T01:21:41.583Z,1.8
2018-06-08T01:21:54.029Z,1.8
2018-06-08T01:22:06.447Z,1.8
2018-06-08T01:22:18.873Z,1.8
2018-06-08T01:22:31.354Z,1.8
2018-06-08T01:22:44.409Z,1.8
2018-06-08T01:22:57.181Z,1.8
2018-06-08T01:23:09.582Z,1.8
2018-06-08T01:23:22.024Z,1.8
2018-06-08T01:23:34.424Z,1.8
2018-06-08T01:23:46.837Z,1.8
2018-06-08T01:23:59.237Z,1.8
2018-06-08T01:24:11.642Z,1.8
2018-06-08T01:24:24.055Z,1.8
2018-06-08T01:24:36.473Z,1.8
2018-06-08T01:24:48.921Z,1.8
2018-06-08T01:25:01.317Z,1.8
2018-06-08T01:25:13.757Z,1.8
2018-06-08T01:25:26.163Z,1.8
2018-06-08T01:25:38.548Z,1.8
2018-06-08T01:25:50.945Z,1.8
2018-06-08T01:26:03.352Z,1.8
2018-06-08T01:26:15.743Z,1.8
2018-06-08T01:26:28.139Z,1.8
2018-06-08T01:26:40.567Z,1.8
2018-06-08T01:26:52.968Z,1.8
2018-06-08T01:27:05.372Z,1.8
2018-06-08T01:27:17.779Z,1.8
2018-06-08T01:27:30.173Z,1.8
2018-06-08T01:27:42.643Z,1.8
2018-06-08T01:27:55.028Z,1.8
2018-06-08T01:28:07.422Z,1.8
2018-06-08T01:28:19.817Z,1.8
2018-06-08T01:28:32.201Z,1.8
2018-06-08T01:28:44.589Z,1.8
2018-06-08T01:28:56.965Z,1.8
2018-06-08T01:29:09.343Z,1.8
2018-06-08T01:29:21.748Z,1.8
2018-06-08T01:29:34.158Z,1.8
2018-06-08T01:29:46.586Z,1.8
2018-06-08T01:29:58.980Z,1.8
2018-06-08T01:30:11.443Z,1.4
2018-06-08T01:30:23.851Z,1.4
2018-06-08T01:30:36.257Z,1.4
2018-06-08T01:30:48.681Z,1.4
2018-06-08T01:31:01.085Z,1.4
2018-06-08T01:31:13.485Z,1.4
2018-06-08T01:31:25.882Z,1.4
2018-06-08T01:31:38.280Z,1.4
2018-06-08T01:31:50.695Z,1.4
2018-06-08T01:32:03.147Z,1.4
2018-06-08T01:32:15.551Z,1.4
2018-06-08T01:32:27.977Z,1.4
2018-06-08T01:32:40.358Z,1.4
2018-06-08T01:32:52.762Z,1.4
2018-06-08T01:33:05.167Z,1.4
2018-06-08T01:33:17.556Z,1.4
2018-06-08T01:33:29.958Z,1.4
2018-06-08T01:33:42.370Z,1.4
2018-06-08T01:33:54.775Z,1.4
2018-06-08T01:34:07.163Z,1.4
2018-06-08T01:34:19.562Z,1.4
2018-06-08T01:34:31.966Z,1.4
2018-06-08T01:34:44.365Z,1.4
2018-06-08T01:34:56.767Z,1.4
2018-06-08T01:35:09.235Z,1.4
2018-06-08T01:35:21.793Z,1.4
2018-06-08T01:35:34.326Z,1.4
2018-06-08T01:35:46.723Z,1.4
2018-06-08T01:35:59.121Z,1.4
2018-06-08T01:36:11.522Z,1.4
2018-06-08T01:36:23.923Z,1.4
2018-06-08T01:36:36.312Z,1.4
2018-06-08T01:36:48.730Z,1.4
2018-06-08T01:37:01.213Z,1.4
2018-06-08T01:37:13.646Z,1.4
2018-06-08T01:37:26.076Z,1.4
2018-06-08T01:37:38.539Z,1.4
2018-06-08T01:37:51.480Z,1.4
2018-06-08T01:38:03.893Z,1.4
2018-06-08T01:38:16.296Z,1.4
2018-06-08T01:38:28.711Z,1.4
2018-06-08T01:38:41.136Z,1.4
2018-06-08T01:38:53.559Z,1.4
2018-06-08T01:39:05.992Z,1.4
2018-06-08T01:39:18.410Z,1.4
2018-06-08T01:39:30.804Z,1.4
2018-06-08T01:39:43.217Z,1.4
2018-06-08T01:39:55.619Z,1.4
2018-06-08T01:40:08.028Z,1.81
2018-06-08T01:40:20.449Z,1.81
2018-06-08T01:40:32.847Z,1.81
2018-06-08T01:40:45.283Z,1.81
2018-06-08T01:40:57.739Z,1.81
2018-06-08T01:41:10.132Z,1.81
2018-06-08T01:41:22.740Z,1.81
2018-06-08T01:41:35.132Z,1.81
2018-06-08T01:41:47.515Z,1.81
2018-06-08T01:41:59.940Z,1.81
2018-06-08T01:42:12.397Z,1.81
2018-06-08T01:42:24.809Z,1.81
2018-06-08T01:42:37.210Z,1.81
2018-06-08T01:42:49.807Z,1.81
2018-06-08T01:43:02.223Z,1.81
2018-06-08T01:43:14.643Z,1.81
2018-06-08T01:43:27.087Z,1.81
2018-06-08T01:43:39.512Z,1.81
2018-06-08T01:43:51.930Z,1.81
2018-06-08T01:44:04.329Z,1.81
2018-06-08T01:44:16.729Z,1.81
2018-06-08T01:44:29.168Z,1.81
2018-06-08T01:44:41.580Z,1.81
2018-06-08T01:44:54.001Z,1.81
2018-06-08T01:45:06.546Z,1.81
2018-06-08T01:45:18.961Z,1.81
2018-06-08T01:45:31.383Z,1.81
2018-06-08T01:45:43.783Z,1.81
2018-06-08T01:45:56.193Z,1.81
2018-06-08T01:46:08.730Z,1.81
2018-06-08T01:46:21.119Z,1.81
2018-06-08T01:46:33.549Z,1.81
2018-06-08T01:46:46.005Z,1.81
2018-06-08T01:46:58.409Z,1.81
2018-06-08T01:47:10.809Z,1.81
2018-06-08T01:47:23.211Z,1.81
2018-06-08T01:47:35.623Z,1.81
2018-06-08T01:47:48.048Z,1.81
2018-06-08T01:48:00.466Z,1.81
2018-06-08T01:48:12.883Z,1.81
2018-06-08T01:48:25.290Z,1.81
2018-06-08T01:48:37.835Z,1.81
2018-06-08T01:48:50.225Z,1.81
2018-06-08T01:49:02.620Z,1.81
2018-06-08T01:49:15.114Z,1.81
2018-06-08T01:49:27.507Z,1.81
2018-06-08T01:49:39.905Z,1.81
2018-06-08T01:49:52.334Z,1.81
2018-06-08T01:50:04.762Z,1.64
2018-06-08T01:50:17.163Z,1.64
2018-06-08T01:50:29.577Z,1.64
2018-06-08T01:50:41.978Z,1.64
2018-06-08T01:50:54.380Z,1.64
2018-06-08T01:51:06.790Z,1.64
2018-06-08T01:51:19.263Z,1.64
2018-06-08T01:51:31.669Z,1.64
2018-06-08T01:51:44.059Z,1.64
2018-06-08T01:51:56.454Z,1.64
2018-06-08T01:52:08.830Z,1.64
2018-06-08T01:52:21.213Z,1.64
2018-06-08T01:52:33.616Z,1.64
2018-06-08T01:52:46.005Z,1.64
2018-06-08T01:52:58.473Z,1.64
2018-06-08T01:53:10.874Z,1.64
2018-06-08T01:53:23.352Z,1.64
2018-06-08T01:53:35.775Z,1.64
2018-06-08T01:53:48.188Z,1.64
2018-06-08T01:54:00.595Z,1.64
2018-06-08T01:54:12.986Z,1.64
2018-06-08T01:54:25.403Z,1.64
2018-06-08T01:54:37.817Z,1.64
2018-06-08T01:54:50.226Z,1.64
2018-06-08T01:55:02.627Z,1.64
2018-06-08T01:55:15.076Z,1.64
2018-06-08T01:55:27.476Z,1.64
2018-06-08T01:55:40.018Z,1.64
2018-06-08T01:55:52.402Z,1.64
2018-06-08T01:56:04.806Z,1.64
2018-06-08T01:56:17.208Z,1.64
2018-06-08T01:56:29.601Z,1.64
2018-06-08T01:56:41.994Z,1.64
2018-06-08T01:56:54.404Z,1.64
2018-06-08T01:57:06.806Z,1.64
2018-06-08T01:57:19.212Z,1.64
2018-06-08T01:57:31.716Z,1.64
2018-06-08T01:57:44.115Z,1.64
2018-06-08T01:57:56.525Z,1.64
2018-06-08T01:58:08.932Z,1.64
2018-06-08T01:58:21.299Z,1.64
2018-06-08T01:58:33.682Z,1.64
2018-06-08T01:58:46.063Z,1.64
2018-06-08T01:58:58.443Z,1.64
2018-06-08T01:59:10.849Z,1.64
2018-06-08T01:59:23.253Z,1.64
2018-06-08T01:59:35.668Z,1.64
2018-06-08T01:59:48.054Z,1.64
2018-06-08T02:00:00.455Z,1.64
2018-06-08T02:00:12.886Z,1.9
2018-06-08T02:00:25.315Z,1.9
2018-06-08T02:00:37.777Z,1.9
2018-06-08T02:00:50.240Z,1.9
2018-06-08T02:01:03.715Z,1.9
2018-06-08T02:01:16.181Z,1.9
2018-06-08T02:01:28.644Z,1.9
2018-06-08T02:01:41.069Z,1.9
2018-06-08T02:01:53.653Z,1.9
2018-06-08T02:02:06.063Z,1.9
2018-06-08T02:02:18.483Z,1.9
2018-06-08T02:02:30.955Z,1.9
2018-06-08T02:02:43.374Z,1.9
2018-06-08T02:02:55.791Z,1.9
2018-06-08T02:03:08.192Z,1.9
2018-06-08T02:03:20.624Z,1.9
2018-06-08T02:03:33.096Z,1.9
2018-06-08T02:03:45.509Z,1.9
2018-06-08T02:03:57.911Z,1.9
2018-06-08T02:04:10.326Z,1.9
2018-06-08T02:04:22.728Z,1.9
2018-06-08T02:04:35.125Z,1.9
2018-06-08T02:04:47.541Z,1.9
2018-06-08T02:04:59.946Z,1.9
2018-06-08T02:05:12.375Z,1.9
2018-06-08T02:05:24.807Z,1.9
2018-06-08T02:05:37.207Z,1.9
2018-06-08T02:05:49.613Z,1.9
2018-06-08T02:06:02.023Z,1.9
2018-06-08T02:06:14.429Z,1.9
2018-06-08T02:06:26.845Z,1.9
2018-06-08T02:06:39.248Z,1.9
2018-06-08T02:06:51.715Z,1.9
2018-06-08T02:07:04.122Z,1.9
2018-06-08T02:07:16.513Z,1.9
2018-06-08T02:07:28.905Z,1.9
2018-06-08T02:07:41.350Z,1.9
2018-06-08T02:07:53.770Z,1.9
2018-06-08T02:08:06.160Z,1.9
2018-06-08T02:08:18.569Z,1.9
2018-06-08T02:08:30.966Z,1.9
2018-06-08T02:08:43.365Z,1.9
2018-06-08T02:08:55.768Z,1.9
2018-06-08T02:09:08.184Z,1.9
2018-06-08T02:09:20.581Z,1.9
2018-06-08T02:09:33.032Z,1.9
2018-06-08T02:09:45.464Z,1.9
2018-06-08T02:09:57.841Z,1.9
2018-06-08T02:10:10.266Z,1.87
2018-06-08T02:10:22.777Z,1.87
2018-06-08T02:10:35.189Z,1.87
2018-06-08T02:10:47.604Z,1.87
2018-06-08T02:11:00.021Z,1.87
2018-06-08T02:11:12.423Z,1.87
2018-06-08T02:11:24.826Z,1.87
2018-06-08T02:11:37.227Z,1.87
2018-06-08T02:11:49.629Z,1.87
2018-06-08T02:12:02.040Z,1.87
2018-06-08T02:12:14.440Z,1.87
2018-06-08T02:12:26.834Z,1.87
2018-06-08T02:12:39.228Z,1.87
2018-06-08T02:12:51.707Z,1.87
2018-06-08T02:13:04.121Z,1.87
2018-06-08T02:13:16.521Z,1.87
2018-06-08T02:13:28.933Z,1.87
2018-06-08T02:13:41.335Z,1.87
2018-06-08T02:13:53.780Z,1.87
2018-06-08T02:14:06.190Z,1.87
2018-06-08T02:14:18.649Z,1.87
2018-06-08T02:14:31.074Z,1.87
2018-06-08T02:14:43.487Z,1.87
2018-06-08T02:14:55.895Z,1.87
2018-06-08T02:15:08.305Z,1.87
2018-06-08T02:15:20.743Z,1.87
2018-06-08T02:15:33.198Z,1.87
2018-06-08T02:15:45.614Z,1.87
2018-06-08T02:15:58.556Z,1.87
2018-06-08T02:16:11.073Z,1.87
2018-06-08T02:16:23.477Z,1.87
2018-06-08T02:16:35.901Z,1.87
2018-06-08T02:16:48.368Z,1.87
2018-06-08T02:17:00.772Z,1.87
2018-06-08T02:17:13.191Z,1.87
2018-06-08T02:17:25.603Z,1.87
2018-06-08T02:17:37.987Z,1.87
2018-06-08T02:17:50.605Z,1.87
2018-06-08T02:18:02.998Z,1.87
2018-06-08T02:18:15.401Z,1.87
2018-06-08T02:18:27.796Z,1.87
2018-06-08T02:18:40.219Z,1.87
2018-06-08T02:18:52.618Z,1.87
2018-06-08T02:19:05.002Z,1.87
2018-06-08T02:19:17.410Z,1.87
2018-06-08T02:19:29.802Z,1.87
2018-06-08T02:19:42.202Z,1.87
2018-06-08T02:19:54.650Z,1.87
2018-06-08T02:20:07.066Z,1.61
2018-06-08T02:20:19.493Z,1.61
2018-06-08T02:20:31.881Z,1.61
2018-06-08T02:20:44.295Z,1.61
2018-06-08T02:20:56.691Z,1.61
2018-06-08T02:21:09.102Z,1.61
2018-06-08T02:21:21.498Z,1.61
2018-06-08T02:21:33.928Z,1.61
2018-06-08T02:21:46.351Z,1.61
2018-06-08T02:21:58.827Z,1.61
2018-06-08T02:22:11.233Z,1.61
2018-06-08T02:22:23.650Z,1.61
2018-06-08T02:22:36.050Z,1.61
2018-06-08T02:22:48.464Z,1.61
2018-06-08T02:23:00.862Z,1.61
2018-06-08T02:23:13.269Z,1.61
2018-06-08T02:23:25.666Z,1.61
2018-06-08T02:23:38.081Z,1.61
2018-06-08T02:23:50.577Z,1.61
2018-06-08T02:24:02.967Z,1.61
2018-06-08T02:24:15.381Z,1.61
2018-06-08T02:24:27.780Z,1.61
2018-06-08T02:24:40.189Z,1.61
2018-06-08T02:24:52.589Z,1.61
2018-06-08T02:25:04.992Z,1.61
2018-06-08T02:25:17.422Z,1.61
2018-06-08T02:25:29.820Z,1.61
2018-06-08T02:25:42.221Z,1.61
2018-06-08T02:25:54.614Z,1.61
2018-06-08T02:26:07.028Z,1.61
2018-06-08T02:26:19.492Z,1.61
2018-06-08T02:26:31.899Z,1.61
2018-06-08T02:26:44.312Z,1.61
2018-06-08T02:26:56.766Z,1.61
2018-06-08T02:27:09.177Z,1.61
2018-06-08T02:27:21.578Z,1.61
2018-06-08T02:27:33.978Z,1.61
2018-06-08T02:27:46.377Z,1.61
2018-06-08T02:27:58.804Z,1.61
2018-06-08T02:28:11.206Z,1.61
2018-06-08T02:28:23.609Z,1.61
2018-06-08T02:28:36.066Z,1.61
2018-06-08T02:28:48.500Z,1.61
2018-06-08T02:29:00.917Z,1.61
2018-06-08T02:29:13.328Z,1.61
2018-06-08T02:29:25.737Z,1.61
2018-06-08T02:29:38.175Z,1.61
2018-06-08T02:29:50.578Z,1.61
2018-06-08T02:30:03.009Z,1.61
2018-06-08T02:30:15.486Z,1.9
2018-06-08T02:30:27.924Z,1.9
2018-06-08T02:30:40.525Z,1.9
2018-06-08T02:30:52.951Z,1.9
2018-06-08T02:31:05.424Z,1.9
2018-06-08T02:31:17.848Z,1.9
2018-06-08T02:31:30.248Z,1.9
2018-06-08T02:31:42.658Z,1.9
2018-06-08T02:31:55.122Z,1.9
2018-06-08T02:32:07.559Z,1.9
2018-06-08T02:32:19.972Z,1.9
2018-06-08T02:32:32.379Z,1.9
2018-06-08T02:32:44.809Z,1.9
2018-06-08T02:32:57.510Z,1.9
2018-06-08T02:33:10.092Z,1.9
2018-06-08T02:33:22.501Z,1.9
2018-06-08T02:33:34.922Z,1.9
2018-06-08T02:33:47.358Z,1.9
2018-06-08T02:33:59.797Z,1.9
2018-06-08T02:34:12.222Z,1.9
2018-06-08T02:34:24.716Z,1.9
2018-06-08T02:34:37.166Z,1.9
2018-06-08T02:34:49.623Z,1.9
2018-06-08T02:35:02.032Z,1.9
2018-06-08T02:35:14.467Z,1.9
2018-06-08T02:35:26.885Z,1.9
2018-06-08T02:35:39.430Z,1.9
2018-06-08T02:35:51.868Z,1.9
2018-06-08T02:36:04.297Z,1.9
2018-06-08T02:36:16.728Z,1.9
2018-06-08T02:36:29.148Z,1.9
2018-06-08T02:36:41.580Z,1.9
2018-06-08T02:36:54.010Z,1.9
2018-06-08T02:37:06.454Z,1.9
2018-06-08T02:37:18.880Z,1.9
2018-06-08T02:37:31.287Z,1.9
2018-06-08T02:37:43.686Z,1.9
2018-06-08T02:37:56.083Z,1.9
2018-06-08T02:38:08.515Z,1.9
2018-06-08T02:38:20.952Z,1.9
2018-06-08T02:38:33.369Z,1.9
2018-06-08T02:38:45.861Z,1.9
2018-06-08T02:38:58.275Z,1.9
2018-06-08T02:39:10.705Z,1.9
2018-06-08T02:39:23.133Z,1.9
2018-06-08T02:39:35.554Z,1.9
2018-06-08T02:39:47.986Z,1.9
2018-06-08T02:40:00.403Z,1.9
2018-06-08T02:40:12.851Z,1.95
2018-06-08T02:40:25.426Z,1.95
2018-06-08T02:40:37.836Z,1.95
2018-06-08T02:40:50.308Z,1.95
2018-06-08T02:41:02.726Z,1.95
2018-06-08T02:41:15.146Z,1.95
2018-06-08T02:41:27.563Z,1.95
2018-06-08T02:41:39.981Z,1.95
2018-06-08T02:41:52.477Z,1.95
2018-06-08T02:42:04.901Z,1.95
2018-06-08T02:42:17.332Z,1.95
2018-06-08T02:42:29.771Z,1.95
2018-06-08T02:42:42.210Z,1.95
2018-06-08T02:42:54.616Z,1.95
2018-06-08T02:43:07.060Z,1.95
2018-06-08T02:43:19.458Z,1.95
2018-06-08T02:43:31.872Z,1.95
2018-06-08T02:43:44.283Z,1.95
2018-06-08T02:43:56.707Z,1.95
2018-06-08T02:44:09.131Z,1.95
2018-06-08T02:44:21.575Z,1.95
2018-06-08T02:44:34.009Z,1.95
2018-06-08T02:44:46.411Z,1.95
2018-06-08T02:44:58.852Z,1.95
2018-06-08T02:45:11.283Z,1.95
2018-06-08T02:45:23.713Z,1.95
2018-06-08T02:45:36.115Z,1.95
2018-06-08T02:45:48.562Z,1.95
2018-06-08T02:46:01.121Z,1.95
2018-06-08T02:46:13.555Z,1.95
2018-06-08T02:46:25.954Z,1.95
2018-06-08T02:46:38.373Z,1.95
2018-06-08T02:46:50.823Z,1.95
2018-06-08T02:47:03.227Z,1.95
2018-06-08T02:47:15.667Z,1.95
2018-06-08T02:47:28.093Z,1.95